createdAt,value
2019-02-14T00:00:49.887Z,48.47
2019-02-14T00:03:18.522Z,50.23
2019-02-14T00:05:47.121Z,53.73
2019-02-14T00:08:15.716Z,53.27
2019-02-14T00:10:44.297Z,58.47
2019-02-14T00:13:12.918Z,59.53
2019-02-14T00:15:41.486Z,56.03
2019-02-14T00:18:10.149Z,48.37
2019-02-14T00:20:38.731Z,53.53
2019-02-14T00:23:07.382Z,59.57
2019-02-14T00:25:35.944Z,48.53
2019-02-14T00:28:04.621Z,53.97
2019-02-14T00:30:33.323Z,45.83
2019-02-14T00:33:03.452Z,48.87
2019-02-14T00:35:32.042Z,50.20
2019-02-14T00:38:00.629Z,48.10
2019-02-14T00:40:29.233Z,49.47
2019-02-14T00:42:57.788Z,43.27
2019-02-14T00:45:26.371Z,50.93
2019-02-14T00:47:55.052Z,46.80
2019-02-14T00:50:23.563Z,46.70
2019-02-14T00:52:52.231Z,46.10
2019-02-14T00:55:20.826Z,44.87
2019-02-14T00:57:50.264Z,41.13
2019-02-14T01:00:18.863Z,45.07
2019-02-14T01:02:47.509Z,49.43
2019-02-14T01:05:16.461Z,51.80
2019-02-14T01:07:45.263Z,44.67
2019-02-14T01:10:13.829Z,47.30
2019-02-14T01:12:42.466Z,46.73
2019-02-14T01:15:10.994Z,42.27
2019-02-14T01:17:39.593Z,42.60
2019-02-14T01:20:08.309Z,39.80
2019-02-14T01:22:36.892Z,46.00
2019-02-14T01:25:06.617Z,39.57
2019-02-14T01:27:35.216Z,45.40
2019-02-14T01:30:04.550Z,45.07
2019-02-14T01:32:33.208Z,40.30
2019-02-14T01:35:01.730Z,46.37
2019-02-14T01:37:30.315Z,44.47
2019-02-14T01:39:58.887Z,42.90
2019-02-14T01:42:27.525Z,47.73
2019-02-14T01:44:56.096Z,45.13
2019-02-14T01:47:25.354Z,33.90
2019-02-14T01:49:53.916Z,39.50
2019-02-14T01:52:22.521Z,33.83
2019-02-14T01:54:51.086Z,40.23
2019-02-14T01:57:19.695Z,37.23
2019-02-14T01:59:48.283Z,36.30
2019-02-14T02:02:16.872Z,41.37
2019-02-14T02:04:45.456Z,36.30
2019-02-14T02:07:14.047Z,42.03
2019-02-14T02:09:42.762Z,37.63
2019-02-14T02:12:11.355Z,40.33
2019-02-14T02:14:39.946Z,38.83
2019-02-14T02:17:08.535Z,35.20
2019-02-14T02:19:37.114Z,41.47
2019-02-14T02:22:05.766Z,32.07
2019-02-14T02:24:34.336Z,37.20
2019-02-14T02:27:02.938Z,31.90
2019-02-14T02:29:31.529Z,35.57
2019-02-14T02:32:00.104Z,37.50
2019-02-14T02:34:28.697Z,37.20
2019-02-14T02:36:57.423Z,31.87
2019-02-14T02:39:26.008Z,31.27
2019-02-14T02:41:54.574Z,34.00
2019-02-14T02:44:23.176Z,31.13
2019-02-14T02:46:51.737Z,32.73
2019-02-14T02:49:20.347Z,33.50
2019-02-14T02:51:48.918Z,31.60
2019-02-14T02:54:17.521Z,33.70
2019-02-14T02:56:46.094Z,34.40
2019-02-14T02:59:14.707Z,34.20
2019-02-14T03:01:43.281Z,33.50
2019-02-14T03:04:11.882Z,32.27
2019-02-14T03:06:40.447Z,32.97
2019-02-14T03:09:09.120Z,31.13
2019-02-14T03:11:37.728Z,29.57
2019-02-14T03:14:06.326Z,31.00
2019-02-14T03:16:34.885Z,26.63
2019-02-14T03:19:03.506Z,31.80
2019-02-14T03:21:32.438Z,29.07
2019-02-14T03:24:01.062Z,27.03
2019-02-14T03:26:29.642Z,29.57
2019-02-14T03:28:58.266Z,27.57
2019-02-14T03:31:26.831Z,27.90
2019-02-14T03:33:55.444Z,29.77
2019-02-14T03:36:24.015Z,29.53
2019-02-14T03:38:52.692Z,25.90
2019-02-14T03:41:21.281Z,28.43
2019-02-14T03:43:49.883Z,28.67
2019-02-14T03:46:18.454Z,29.63
2019-02-14T03:48:47.065Z,24.70
2019-02-14T03:51:15.637Z,26.13
2019-02-14T03:53:44.233Z,30.17
2019-02-14T03:56:12.815Z,24.80
2019-02-14T03:58:41.420Z,27.43
2019-02-14T04:01:09.988Z,29.57
2019-02-14T04:03:38.575Z,30.30
2019-02-14T04:06:07.138Z,33.23
2019-02-14T04:08:35.738Z,25.30
2019-02-14T04:11:04.729Z,24.17
2019-02-14T04:13:33.322Z,25.73
2019-02-14T04:16:01.969Z,27.10
2019-02-14T04:18:30.582Z,27.13
2019-02-14T04:20:59.246Z,24.17
2019-02-14T04:23:27.875Z,24.30
2019-02-14T04:25:56.444Z,28.57
2019-02-14T04:28:25.048Z,23.90
2019-02-14T04:30:53.620Z,31.60
2019-02-14T04:33:22.219Z,25.63
2019-02-14T04:35:50.790Z,32.17
2019-02-14T04:38:19.381Z,28.40
2019-02-14T04:40:47.958Z,26.67
2019-02-14T04:43:16.544Z,25.83
2019-02-14T04:45:45.133Z,28.53
2019-02-14T04:48:13.711Z,24.97
2019-02-14T04:50:42.335Z,23.07
2019-02-14T04:53:10.881Z,23.00
2019-02-14T04:55:39.502Z,27.13
2019-02-14T04:58:08.077Z,26.80
2019-02-14T05:00:36.660Z,26.17
2019-02-14T05:03:05.277Z,22.40
2019-02-14T05:05:33.927Z,24.93
2019-02-14T05:08:02.504Z,25.73
2019-02-14T05:10:31.097Z,25.90
2019-02-14T05:12:59.734Z,25.80
2019-02-14T05:15:28.372Z,23.97
2019-02-14T05:17:56.963Z,24.90
2019-02-14T05:20:25.589Z,25.13
2019-02-14T05:22:54.192Z,25.70
2019-02-14T05:25:22.818Z,25.07
2019-02-14T05:27:51.396Z,26.20
2019-02-14T05:30:20.257Z,22.27
2019-02-14T05:32:48.804Z,20.80
2019-02-14T05:35:17.430Z,25.87
2019-02-14T05:37:46.262Z,26.47
2019-02-14T05:40:14.853Z,26.10
2019-02-14T05:42:43.412Z,22.27
2019-02-14T05:45:13.059Z,22.70
2019-02-14T05:47:41.629Z,28.70
2019-02-14T05:50:15.208Z,23.50
2019-02-14T05:52:43.744Z,26.33
2019-02-14T05:55:13.836Z,23.73
2019-02-14T05:57:42.478Z,26.03
2019-02-14T06:00:13.535Z,27.10
2019-02-14T06:02:42.134Z,27.87
2019-02-14T06:05:10.791Z,25.37
2019-02-14T06:07:39.376Z,20.13
2019-02-14T06:10:10.008Z,28.43
2019-02-14T06:12:38.592Z,25.77
2019-02-14T06:15:10.112Z,24.47
2019-02-14T06:17:38.762Z,24.13
2019-02-14T06:20:12.133Z,24.20
2019-02-14T06:22:40.746Z,23.30
2019-02-14T06:25:11.522Z,29.17
2019-02-14T06:27:40.112Z,27.27
2019-02-14T06:30:13.705Z,27.00
2019-02-14T06:32:42.384Z,30.90
2019-02-14T06:35:11.639Z,24.73
2019-02-14T06:37:40.200Z,28.93
2019-02-14T06:40:13.020Z,23.93
2019-02-14T06:42:41.704Z,23.67
2019-02-14T06:45:12.909Z,25.00
2019-02-14T06:47:41.524Z,24.57
2019-02-14T06:50:10.540Z,25.77
2019-02-14T06:52:40.461Z,21.17
2019-02-14T06:55:09.640Z,23.30
2019-02-14T06:57:38.245Z,22.43
2019-02-14T07:00:15.166Z,27.13
2019-02-14T07:02:43.786Z,28.93
2019-02-14T07:05:12.410Z,26.10
2019-02-14T07:07:40.994Z,27.63
2019-02-14T07:10:11.001Z,23.13
2019-02-14T07:12:39.644Z,21.97
2019-02-14T07:15:10.863Z,27.17
2019-02-14T07:17:39.462Z,23.57
2019-02-14T07:20:13.894Z,28.57
2019-02-14T07:22:42.507Z,23.90
2019-02-14T07:25:12.129Z,19.83
2019-02-14T07:27:40.790Z,22.10
2019-02-14T07:30:12.798Z,25.13
2019-02-14T07:32:41.383Z,21.43
2019-02-14T07:35:10.669Z,22.40
2019-02-14T07:37:39.269Z,26.10
2019-02-14T07:40:12.711Z,22.87
2019-02-14T07:42:41.276Z,23.17
2019-02-14T07:45:12.653Z,28.77
2019-02-14T07:47:41.379Z,27.13
2019-02-14T07:50:11.707Z,25.30
2019-02-14T07:52:40.450Z,19.50
2019-02-14T07:55:13.929Z,24.40
2019-02-14T07:57:42.661Z,21.70
2019-02-14T08:00:25.982Z,20.53
2019-02-14T08:02:52.167Z,25.23
2019-02-14T08:05:20.741Z,24.60
2019-02-14T08:07:50.900Z,25.70
2019-02-14T08:10:19.651Z,19.83
2019-02-14T08:12:49.901Z,20.17
2019-02-14T08:15:21.617Z,21.23
2019-02-14T08:17:50.630Z,26.57
2019-02-14T08:20:22.592Z,26.67
2019-02-14T08:22:51.133Z,22.23
2019-02-14T08:25:24.197Z,22.10
2019-02-14T08:27:52.804Z,22.73
2019-02-14T08:30:21.521Z,25.53
2019-02-14T08:32:50.137Z,28.20
2019-02-14T08:35:18.719Z,28.20
2019-02-14T08:37:47.334Z,27.20
2019-02-14T08:40:28.014Z,27.40
2019-02-14T08:42:58.438Z,23.50
2019-02-14T08:45:29.504Z,27.90
2019-02-14T08:47:58.102Z,24.90
2019-02-14T08:50:26.693Z,25.27
2019-02-14T08:52:58.363Z,28.37
2019-02-14T08:55:29.601Z,23.80
2019-02-14T08:57:59.737Z,20.53
2019-02-14T09:00:31.013Z,18.60
2019-02-14T09:02:59.694Z,22.43
2019-02-14T09:05:28.199Z,22.37
2019-02-14T09:07:56.816Z,23.53
2019-02-14T09:10:28.683Z,20.67
2019-02-14T09:12:57.677Z,22.33
2019-02-14T09:15:29.294Z,22.80
2019-02-14T09:18:02.219Z,22.47
2019-02-14T09:20:30.756Z,20.80
2019-02-14T09:22:59.363Z,21.70
2019-02-14T09:25:27.931Z,21.47
2019-02-14T09:27:59.965Z,22.00
2019-02-14T09:30:30.077Z,21.93
2019-02-14T09:32:58.666Z,22.37
2019-02-14T09:35:30.403Z,19.27
2019-02-14T09:38:03.409Z,22.40
2019-02-14T09:40:33.992Z,23.63
2019-02-14T09:43:02.861Z,20.13
2019-02-14T09:45:31.536Z,21.87
2019-02-14T09:48:00.216Z,22.33
2019-02-14T09:50:28.852Z,23.43
2019-02-14T09:53:04.842Z,19.33
2019-02-14T09:55:33.423Z,18.60
2019-02-14T09:58:02.931Z,17.53
2019-02-14T10:00:31.518Z,16.77
2019-02-14T10:03:00.127Z,20.07
2019-02-14T10:05:28.703Z,18.77
2019-02-14T10:07:57.309Z,16.77
2019-02-14T10:10:25.877Z,21.27
2019-02-14T10:12:54.605Z,18.10
2019-02-14T10:15:26.064Z,15.83
2019-02-14T10:17:54.672Z,19.03
2019-02-14T10:20:23.309Z,15.67
2019-02-14T10:22:52.080Z,16.77
2019-02-14T10:25:20.891Z,12.93
2019-02-14T10:27:49.634Z,16.70
2019-02-14T10:30:26.190Z,13.23
2019-02-14T10:32:54.793Z,13.23
2019-02-14T10:35:26.446Z,16.90
2019-02-14T10:37:55.066Z,14.20
2019-02-14T10:40:23.747Z,18.83
2019-02-14T10:42:52.415Z,14.70
2019-02-14T10:45:24.209Z,13.57
2019-02-14T10:47:52.831Z,12.93
2019-02-14T10:50:21.414Z,10.87
2019-02-14T10:52:50.224Z,13.00
2019-02-14T10:55:21.506Z,12.87
2019-02-14T10:57:53.242Z,12.67
2019-02-14T11:00:25.655Z,16.63
2019-02-14T11:02:54.289Z,13.77
2019-02-14T11:05:23.113Z,13.73
2019-02-14T11:07:51.771Z,14.20
2019-02-14T11:10:20.725Z,10.00
2019-02-14T11:12:49.291Z,12.90
2019-02-14T11:15:30.753Z,12.13
2019-02-14T11:18:07.186Z,10.33
2019-02-14T11:20:37.722Z,12.67
2019-02-14T11:23:06.567Z,11.90
2019-02-14T11:25:36.788Z,10.93
2019-02-14T11:28:05.513Z,10.40
2019-02-14T11:30:34.170Z,10.50
2019-02-14T11:33:02.746Z,14.43
2019-02-14T11:35:31.410Z,15.60
2019-02-14T11:37:59.976Z,10.60
2019-02-14T11:40:28.576Z,13.90
2019-02-14T11:42:57.225Z,10.97
2019-02-14T11:45:26.261Z,13.77
2019-02-14T11:47:54.845Z,13.87
2019-02-14T11:50:23.438Z,14.60
2019-02-14T11:52:52.013Z,13.67
2019-02-14T11:55:20.695Z,15.47
2019-02-14T11:57:49.348Z,10.43
2019-02-14T12:00:23.564Z,15.13
2019-02-14T12:02:55.546Z,12.20
2019-02-14T12:05:22.366Z,12.90
2019-02-14T12:07:53.878Z,10.23
2019-02-14T12:10:22.473Z,13.23
2019-02-14T12:12:51.087Z,12.47
2019-02-14T12:15:19.782Z,15.10
2019-02-14T12:17:48.344Z,10.33
2019-02-14T12:20:16.988Z,15.00
2019-02-14T12:22:46.998Z,10.87
2019-02-14T12:25:21.313Z,12.47
2019-02-14T12:27:49.892Z,16.93
2019-02-14T12:30:18.533Z,12.13
2019-02-14T12:32:47.307Z,12.17
2019-02-14T12:35:15.917Z,14.13
2019-02-14T12:37:44.491Z,12.63
2019-02-14T12:40:14.130Z,11.87
2019-02-14T12:42:42.735Z,13.50
2019-02-14T12:45:23.620Z,12.03
2019-02-14T12:47:51.447Z,11.40
2019-02-14T12:50:19.998Z,14.13
2019-02-14T12:52:48.569Z,14.03
2019-02-14T12:55:20.353Z,13.60
2019-02-14T12:57:48.997Z,14.73
2019-02-14T13:00:24.482Z,15.67
2019-02-14T13:02:53.329Z,12.20
2019-02-14T13:05:22.257Z,12.13
2019-02-14T13:07:50.768Z,16.33
2019-02-14T13:10:19.797Z,17.73
2019-02-14T13:12:50.388Z,13.47
2019-02-14T13:15:28.948Z,14.83
2019-02-14T13:17:57.792Z,12.87
2019-02-14T13:20:26.467Z,15.27
2019-02-14T13:22:55.218Z,14.00
2019-02-14T13:25:23.920Z,18.43
2019-02-14T13:27:52.577Z,14.40
2019-02-14T13:30:25.938Z,16.37
2019-02-14T13:32:54.696Z,12.77
2019-02-14T13:35:23.431Z,12.77
2019-02-14T13:37:53.528Z,12.43
2019-02-14T13:40:22.224Z,13.53
2019-02-14T13:42:50.798Z,11.70
2019-02-14T13:45:23.970Z,14.73
2019-02-14T13:47:54.192Z,13.73
2019-02-14T13:50:22.835Z,12.80
2019-02-14T13:52:51.410Z,15.03
2019-02-14T13:55:20.012Z,13.57
2019-02-14T13:57:48.611Z,14.03
2019-02-14T14:00:30.974Z,15.57
2019-02-14T14:02:59.630Z,15.13
2019-02-14T14:05:28.243Z,12.97
2019-02-14T14:07:56.828Z,14.57
2019-02-14T14:10:25.407Z,14.30
2019-02-14T14:12:54.024Z,15.87
2019-02-14T14:15:22.676Z,11.87
2019-02-14T14:17:53.954Z,13.70
2019-02-14T14:20:22.589Z,12.57
2019-02-14T14:22:51.198Z,11.67
2019-02-14T14:25:19.800Z,12.17
2019-02-14T14:27:48.444Z,14.27
2019-02-14T14:30:17.034Z,16.27
2019-02-14T14:32:47.283Z,12.57
2019-02-14T14:35:18.692Z,13.27
2019-02-14T14:37:47.336Z,15.63
2019-02-14T14:40:20.219Z,14.57
2019-02-14T14:42:50.106Z,12.93
2019-02-14T14:45:39.188Z,13.10
2019-02-14T14:48:19.195Z,15.43
2019-02-14T14:50:41.173Z,12.33
2019-02-14T14:53:09.775Z,15.37
2019-02-14T14:55:38.350Z,14.07
2019-02-14T14:58:06.941Z,15.53
2019-02-14T15:00:35.525Z,13.57
2019-02-14T15:03:04.152Z,14.37
2019-02-14T15:05:32.727Z,13.43
2019-02-14T15:08:01.375Z,16.30
2019-02-14T15:10:29.943Z,18.20
2019-02-14T15:12:58.543Z,13.37
2019-02-14T15:15:27.533Z,14.93
2019-02-14T15:17:56.130Z,17.40
2019-02-14T15:20:24.718Z,12.77
2019-02-14T15:22:53.323Z,14.93
2019-02-14T15:25:21.883Z,16.63
2019-02-14T15:27:50.464Z,13.80
2019-02-14T15:30:19.406Z,16.57
2019-02-14T15:32:47.999Z,14.43
2019-02-14T15:35:16.575Z,15.73
2019-02-14T15:37:47.060Z,16.67
2019-02-14T15:40:15.400Z,15.27
2019-02-14T15:42:44.425Z,16.27
2019-02-14T15:45:12.994Z,16.20
2019-02-14T15:47:41.596Z,18.53
2019-02-14T15:50:10.269Z,20.03
2019-02-14T15:52:38.860Z,13.60
2019-02-14T15:55:07.983Z,17.50
2019-02-14T15:57:36.577Z,15.50
2019-02-14T16:00:10.737Z,13.37
2019-02-14T16:02:38.823Z,13.87
2019-02-14T16:05:08.159Z,14.77
2019-02-14T16:07:37.368Z,11.40
2019-02-14T16:10:17.599Z,16.47
2019-02-14T16:12:41.082Z,13.83
2019-02-14T16:15:10.040Z,11.90
2019-02-14T16:17:38.623Z,13.80
2019-02-14T16:20:08.620Z,12.60
2019-02-14T16:22:37.228Z,13.30
2019-02-14T16:25:07.346Z,14.20
2019-02-14T16:27:35.936Z,12.40
2019-02-14T16:30:07.722Z,18.80
2019-02-14T16:32:36.596Z,18.97
2019-02-14T16:35:06.405Z,11.60
2019-02-14T16:37:34.977Z,15.47
2019-02-14T16:40:03.655Z,12.53
2019-02-14T16:42:32.216Z,11.37
2019-02-14T16:45:00.888Z,11.93
2019-02-14T16:47:29.469Z,13.93
2019-02-14T16:49:58.100Z,18.97
2019-02-14T16:52:26.659Z,31.83
2019-02-14T16:54:55.248Z,25.60
2019-02-14T16:57:24.303Z,23.07
2019-02-14T16:59:52.917Z,17.90
2019-02-14T17:02:21.474Z,17.77
2019-02-14T17:04:50.087Z,13.33
2019-02-14T17:07:18.666Z,18.57
2019-02-14T17:09:47.332Z,12.17
2019-02-14T17:12:15.902Z,13.50
2019-02-14T17:14:44.820Z,14.67
2019-02-14T17:17:13.415Z,15.30
2019-02-14T17:19:42.039Z,14.67
2019-02-14T17:22:10.753Z,13.03
2019-02-14T17:24:39.358Z,11.20
2019-02-14T17:27:07.925Z,15.63
2019-02-14T17:29:36.529Z,11.97
2019-02-14T17:32:05.109Z,13.10
2019-02-14T17:34:33.731Z,12.33
2019-02-14T17:37:02.363Z,13.77
2019-02-14T17:39:30.973Z,13.40
2019-02-14T17:41:59.543Z,10.20
2019-02-14T17:44:28.139Z,12.23
2019-02-14T17:46:56.707Z,16.70
2019-02-14T17:49:25.309Z,14.40
2019-02-14T17:51:53.932Z,17.63
2019-02-14T17:54:22.875Z,29.00
2019-02-14T17:56:54.744Z,15.03
2019-02-14T17:59:24.814Z,20.83
2019-02-14T18:01:53.407Z,25.17
2019-02-14T18:04:21.997Z,14.07
2019-02-14T18:06:50.685Z,16.20
2019-02-14T18:09:19.288Z,11.10
2019-02-14T18:11:47.833Z,13.20
2019-02-14T18:14:16.436Z,16.53
2019-02-14T18:16:45.016Z,12.13
2019-02-14T18:19:13.608Z,12.73
2019-02-14T18:21:42.217Z,15.67
2019-02-14T18:24:11.744Z,14.20
2019-02-14T18:26:40.435Z,10.97
2019-02-14T18:29:10.797Z,17.20
2019-02-14T18:31:42.235Z,15.47
2019-02-14T18:34:20.505Z,14.30
2019-02-14T18:36:49.116Z,16.13
2019-02-14T18:39:19.084Z,14.27
2019-02-14T18:41:47.785Z,11.67
2019-02-14T18:44:19.921Z,12.53
2019-02-14T18:46:51.043Z,14.27
2019-02-14T18:49:29.481Z,13.63
2019-02-14T18:51:58.098Z,12.73
2019-02-14T18:54:27.098Z,13.73
2019-02-14T18:56:58.805Z,11.20
2019-02-14T18:59:27.582Z,13.77
2019-02-14T19:01:56.397Z,15.93
2019-02-14T19:04:25.040Z,12.90
2019-02-14T19:06:53.711Z,10.83
2019-02-14T19:09:22.435Z,11.90
2019-02-14T19:11:51.076Z,14.87
2019-02-14T19:14:19.756Z,18.07
2019-02-14T19:16:48.594Z,20.37
2019-02-14T19:19:17.249Z,12.70
2019-02-14T19:21:45.974Z,11.60
2019-02-14T19:24:16.318Z,9.43
2019-02-14T19:26:45.497Z,9.17
2019-02-14T19:29:14.289Z,12.50
2019-02-14T19:31:44.920Z,10.17
2019-02-14T19:34:13.537Z,11.40
2019-02-14T19:36:42.248Z,13.63
2019-02-14T19:39:10.870Z,10.33
2019-02-14T19:41:39.450Z,9.83
2019-02-14T19:44:14.152Z,8.73
2019-02-14T19:46:42.894Z,13.33
2019-02-14T19:49:11.535Z,12.30
2019-02-14T19:51:40.204Z,11.93
2019-02-14T19:54:08.810Z,10.93
2019-02-14T19:56:37.400Z,10.63
2019-02-14T19:59:06.008Z,12.63
2019-02-14T20:01:37.536Z,11.50
2019-02-14T20:04:06.018Z,14.23
2019-02-14T20:06:34.902Z,10.80
2019-02-14T20:09:05.476Z,11.73
2019-02-14T20:11:37.124Z,8.87
2019-02-14T20:14:04.849Z,7.67
2019-02-14T20:16:33.412Z,11.10
2019-02-14T20:19:02.010Z,8.27
2019-02-14T20:21:30.728Z,14.30
2019-02-14T20:24:02.521Z,14.93
2019-02-14T20:26:31.110Z,9.70
2019-02-14T20:28:59.745Z,12.13
2019-02-14T20:31:28.734Z,10.40
2019-02-14T20:33:57.341Z,9.67
2019-02-14T20:36:26.296Z,7.93
2019-02-14T20:38:54.914Z,10.43
2019-02-14T20:41:23.492Z,11.20
2019-02-14T20:43:52.091Z,8.53
2019-02-14T20:46:21.140Z,9.80
2019-02-14T20:48:49.829Z,8.90
2019-02-14T20:51:18.447Z,9.33
2019-02-14T20:53:47.056Z,8.27
2019-02-14T20:56:15.632Z,10.13
2019-02-14T20:58:46.948Z,7.23
2019-02-14T21:01:15.597Z,7.17
2019-02-14T21:03:44.206Z,8.07
2019-02-14T21:06:13.426Z,7.73
2019-02-14T21:08:42.017Z,6.87
2019-02-14T21:11:11.020Z,8.43
2019-02-14T21:13:39.588Z,8.47
2019-02-14T21:16:08.210Z,6.40
2019-02-14T21:18:36.803Z,6.00
2019-02-14T21:21:05.421Z,6.70
2019-02-14T21:23:34.000Z,8.23
2019-02-14T21:26:02.882Z,9.23
2019-02-14T21:28:32.037Z,7.07
2019-02-14T21:31:00.588Z,8.63
2019-02-14T21:33:29.230Z,7.67
2019-02-14T21:35:57.801Z,10.67
2019-02-14T21:38:26.456Z,10.00
2019-02-14T21:40:55.229Z,9.13
2019-02-14T21:43:23.784Z,7.17
2019-02-14T21:45:52.352Z,7.50
2019-02-14T21:48:20.918Z,7.20
2019-02-14T21:50:49.516Z,10.17
2019-02-14T21:53:18.139Z,7.73
2019-02-14T21:55:46.748Z,6.43
2019-02-14T21:58:15.477Z,7.57
2019-02-14T22:00:44.025Z,8.87
2019-02-14T22:03:12.593Z,9.23
2019-02-14T22:05:41.231Z,12.50
2019-02-14T22:08:09.875Z,7.00
2019-02-14T22:10:38.455Z,8.93
2019-02-14T22:13:07.026Z,8.07
2019-02-14T22:15:35.612Z,7.57
2019-02-14T22:18:04.183Z,9.40
2019-02-14T22:20:32.838Z,14.23
2019-02-14T22:23:01.401Z,18.37
2019-02-14T22:25:30.015Z,11.73
2019-02-14T22:27:58.601Z,10.77
2019-02-14T22:30:27.172Z,7.40
2019-02-14T22:32:55.774Z,10.33
2019-02-14T22:35:24.362Z,8.03
2019-02-14T22:37:52.930Z,8.83
2019-02-14T22:40:21.524Z,10.67
2019-02-14T22:42:50.117Z,10.93
2019-02-14T22:45:18.760Z,6.07
2019-02-14T22:47:47.307Z,7.40
2019-02-14T22:50:15.921Z,11.70
2019-02-14T22:52:44.478Z,10.23
2019-02-14T22:55:14.092Z,7.83
2019-02-14T22:57:42.666Z,8.80
2019-02-14T23:00:27.901Z,6.77
2019-02-14T23:02:56.486Z,9.20
2019-02-14T23:05:25.075Z,7.90
2019-02-14T23:07:53.722Z,10.37
2019-02-14T23:10:22.387Z,6.90
2019-02-14T23:12:55.789Z,6.83
2019-02-14T23:15:21.187Z,6.53
2019-02-14T23:17:49.892Z,8.10
2019-02-14T23:20:18.477Z,7.30
2019-02-14T23:22:47.053Z,16.47
2019-02-14T23:25:15.715Z,9.70
2019-02-14T23:27:44.450Z,8.43
2019-02-14T23:30:13.308Z,9.07
2019-02-14T23:32:41.886Z,10.57
2019-02-14T23:35:10.535Z,6.53
2019-02-14T23:37:39.112Z,7.30
2019-02-14T23:40:08.352Z,6.43
2019-02-14T23:42:36.904Z,7.43
2019-02-14T23:45:08.338Z,7.80
2019-02-14T23:47:36.907Z,5.30
2019-02-14T23:50:09.880Z,10.50
2019-02-14T23:52:38.454Z,6.30
2019-02-14T23:55:08.469Z,11.17
2019-02-14T23:57:37.039Z,7.40
